Time,TemperatureF,DewpointF,PressureIn,WindDirection,WindDirectionDegrees,WindSpeedMPH,WindSpeedGustMPH,Humidity,HourlyPrecipIn,Conditions,Clouds,dailyrainin,SoftwareType,DateUTC
2013-05-14 00:00:00,84.0,23.9,30.03,SE,135,14.0,14.0,11,0.00,,SKC,0.00,VWS V14.01,2013-05-14 07:00:00,
2013-05-14 00:05:00,84.0,23.9,30.02,SE,135,14.0,14.0,11,0.00,,SKC,0.00,VWS V14.01,2013-05-14 07:05:00,
2013-05-14 00:10:00,84.0,23.9,30.03,ESE,112,10.0,13.0,11,0.00,,SKC,0.00,VWS V14.01,2013-05-14 07:10:00,
2013-05-14 00:15:00,84.0,23.9,30.02,SSE,158,6.0,9.0,11,0.00,,SKC,0.00,VWS V14.01,2013-05-14 07:15:00,
2013-05-14 00:20:00,84.0,23.9,30.02,ESE,112,10.0,16.0,11,0.00,,SKC,0.00,VWS V14.01,2013-05-14 07:20:00,
2013-05-14 00:25:00,84.0,23.9,30.02,ESE,112,12.0,14.0,11,0.00,,SKC,0.00,VWS V14.01,2013-05-14 07:25:00,
2013-05-14 00:30:00,84.0,23.9,30.02,ESE,112,10.0,11.0,11,0.00,,SKC,0.00,VWS V14.01,2013-05-14 07:30:00,
2013-05-14 00:35:00,85.0,26.8,30.02,SSE,158,10.0,11.0,12,0.00,,SKC,0.00,VWS V14.01,2013-05-14 07:35:00,
2013-05-14 00:40:00,84.0,26.0,30.02,SSE,158,9.0,12.0,12,0.00,,SKC,0.00,VWS V14.01,2013-05-14 07:40:00,
2013-05-14 00:45:00,82.0,24.4,30.03,SW,225,8.0,13.0,12,0.00,,SKC,0.00,VWS V14.01,2013-05-14 07:45:00,
2013-05-14 00:50:00,80.0,24.8,30.03,SE,135,6.0,8.0,13,0.00,,SKC,0.00,VWS V14.01,2013-05-14 07:50:00,
2013-05-14 00:55:00,80.0,24.8,30.03,SSE,158,8.0,13.0,13,0.00,,SKC,0.00,VWS V14.01,2013-05-14 07:55:00,
2013-05-14 01:00:00,80.0,24.8,30.03,SE,135,11.0,12.0,13,0.00,,SKC,0.00,VWS V14.01,2013-05-14 08:00:00,
2013-05-14 01:05:00,80.0,24.8,30.03,SSE,158,9.0,11.0,13,0.00,,SKC,0.00,VWS V14.01,2013-05-14 08:05:00,
2013-05-14 01:10:00,80.0,24.8,30.04,ESE,112,4.0,7.0,13,0.00,,SKC,0.00,VWS V14.01,2013-05-14 08:10:00,
2013-05-14 01:15:00,80.0,24.8,30.04,SE,135,5.0,6.0,13,0.00,,SKC,0.00,VWS V14.01,2013-05-14 08:15:00,
2013-05-14 01:20:00,80.0,26.6,30.04,South,180,7.0,8.0,14,0.00,,SKC,0.00,VWS V14.01,2013-05-14 08:20:00,
2013-05-14 01:25:00,80.0,26.6,30.04,SSE,158,6.0,8.0,14,0.00,,SKC,0.00,VWS V14.01,2013-05-14 08:25:00,
2013-05-14 01:30:00,80.0,28.2,30.04,SE,135,13.0,15.0,15,0.00,,SKC,0.00,VWS V14.01,2013-05-14 08:30:00,
2013-05-14 01:35:00,80.0,28.2,30.04,SSE,158,11.0,11.0,15,0.00,,SKC,0.00,VWS V14.01,2013-05-14 08:35:00,
2013-05-14 01:40:00,80.0,31.3,30.04,SE,135,9.0,12.0,17,0.00,,SKC,0.00,VWS V14.01,2013-05-14 08:40:00,
2013-05-14 01:46:00,79.0,31.9,30.04,SSE,158,15.0,19.0,18,0.00,,SKC,0.00,VWS V14.01,2013-05-14 08:46:00,
2013-05-14 01:51:00,79.0,31.9,30.04,SE,135,8.0,8.0,18,0.00,,SKC,0.00,VWS V14.01,2013-05-14 08:51:00,
2013-05-14 01:56:00,79.0,31.9,30.04,SSE,158,9.0,9.0,18,0.00,,SKC,0.00,VWS V14.01,2013-05-14 08:56:00,
2013-05-14 02:01:00,79.0,31.9,30.04,SSE,158,13.0,13.0,18,0.00,,SKC,0.00,VWS V14.01,2013-05-14 09:01:00,
2013-05-14 02:06:00,79.0,33.3,30.04,SSE,158,7.0,8.0,19,0.00,,SKC,0.00,VWS V14.01,2013-05-14 09:06:00,
2013-05-14 02:11:00,79.0,33.3,30.04,SE,135,14.0,15.0,19,0.00,,SKC,0.00,VWS V14.01,2013-05-14 09:11:00,
2013-05-14 02:16:00,79.0,33.3,30.04,SSE,158,7.0,8.0,19,0.00,,SKC,0.00,VWS V14.01,2013-05-14 09:16:00,
2013-05-14 02:21:00,79.0,33.3,30.04,SE,135,8.0,11.0,19,0.00,,SKC,0.00,VWS V14.01,2013-05-14 09:21:00,
2013-05-14 02:26:00,79.0,33.3,30.05,SE,135,10.0,10.0,19,0.00,,SKC,0.00,VWS V14.01,2013-05-14 09:26:00,
2013-05-14 02:31:00,79.0,33.3,30.05,SE,135,12.0,12.0,19,0.00,,SKC,0.00,VWS V14.01,2013-05-14 09:31:00,
2013-05-14 02:37:00,79.0,33.3,30.04,SSE,158,14.0,14.0,19,0.00,,SKC,0.00,VWS V14.01,2013-05-14 09:37:00,
2013-05-14 02:42:00,79.0,34.5,30.05,ESE,112,8.0,11.0,20,0.00,,SKC,0.00,VWS V14.01,2013-05-14 09:42:00,
2013-05-14 02:47:00,78.0,33.7,30.04,South,180,8.0,11.0,20,0.00,,SKC,0.00,VWS V14.01,2013-05-14 09:47:00,
2013-05-14 02:52:00,79.0,34.5,30.05,SE,135,12.0,13.0,20,0.00,,SKC,0.00,VWS V14.01,2013-05-14 09:52:00,
2013-05-14 02:57:00,79.0,34.5,30.05,ESE,112,6.0,8.0,20,0.00,,SKC,0.00,VWS V14.01,2013-05-14 09:57:00,
2013-05-14 03:02:00,79.0,34.5,30.05,SSE,158,8.0,8.0,20,0.00,,SKC,0.00,VWS V14.01,2013-05-14 10:02:00,
2013-05-14 03:07:00,78.0,33.7,30.05,SE,135,14.0,15.0,20,0.00,,SKC,0.00,VWS V14.01,2013-05-14 10:07:00,
2013-05-14 03:12:00,78.0,33.7,30.05,ESE,112,8.0,10.0,20,0.00,,SKC,0.00,VWS V14.01,2013-05-14 10:12:00,
2013-05-14 03:17:00,78.0,33.7,30.05,SSE,158,13.0,14.0,20,0.00,,SKC,0.00,VWS V14.01,2013-05-14 10:17:00,
2013-05-14 03:22:00,78.0,33.7,30.05,SE,135,10.0,12.0,20,0.00,,SKC,0.00,VWS V14.01,2013-05-14 10:22:00,
2013-05-14 03:27:00,78.0,34.9,30.05,SSE,158,9.0,10.0,21,0.00,,SKC,0.00,VWS V14.01,2013-05-14 10:27:00,
2013-05-14 03:32:00,78.0,34.9,30.05,SSE,158,4.0,8.0,21,0.00,,SKC,0.00,VWS V14.01,2013-05-14 10:32:00,
2013-05-14 03:37:00,78.0,34.9,30.05,SSE,158,6.0,7.0,21,0.00,,SKC,0.00,VWS V14.01,2013-05-14 10:37:00,
2013-05-14 03:42:00,78.0,34.9,30.05,SSE,158,5.0,5.0,21,0.00,,SKC,0.00,VWS V14.01,2013-05-14 10:42:00,
2013-05-14 03:47:00,77.0,35.3,30.05,SSE,158,6.0,6.0,22,0.00,,SKC,0.00,VWS V14.01,2013-05-14 10:47:00,
2013-05-14 03:52:00,77.0,35.3,30.05,South,180,6.0,7.0,22,0.00,,SKC,0.00,VWS V14.01,2013-05-14 10:52:00,
2013-05-14 03:57:00,77.0,35.3,30.05,SSW,202,3.0,3.0,22,0.00,,SKC,0.00,VWS V14.01,2013-05-14 10:57:00,
2013-05-14 04:02:00,76.0,34.5,30.05,South,180,2.0,3.0,22,0.00,,SKC,0.00,VWS V14.01,2013-05-14 11:02:00,
2013-05-14 04:07:00,76.0,35.6,30.05,SSW,202,3.0,3.0,23,0.00,,SKC,0.00,VWS V14.01,2013-05-14 11:07:00,
2013-05-14 04:12:00,76.0,35.6,30.05,SSE,158,5.0,6.0,23,0.00,,SKC,0.00,VWS V14.01,2013-05-14 11:12:00,
2013-05-14 04:17:00,76.0,35.6,30.05,SSE,158,8.0,8.0,23,0.00,,SKC,0.00,VWS V14.01,2013-05-14 11:17:00,
2013-05-14 04:22:00,76.0,34.5,30.05,South,180,6.0,6.0,22,0.00,,SKC,0.00,VWS V14.01,2013-05-14 11:22:00,
2013-05-14 04:27:00,77.0,35.3,30.05,SSE,158,8.0,10.0,22,0.00,,SKC,0.00,VWS V14.01,2013-05-14 11:27:00,
2013-05-14 04:32:00,77.0,35.3,30.05,SW,225,3.0,4.0,22,0.00,,SKC,0.00,VWS V14.01,2013-05-14 11:32:00,
2013-05-14 04:37:00,77.0,35.3,30.04,WSW,248,3.0,4.0,22,0.00,,SKC,0.00,VWS V14.01,2013-05-14 11:37:00,
2013-05-14 04:42:00,77.0,35.3,30.05,SSE,158,3.0,3.0,22,0.00,,SKC,0.00,VWS V14.01,2013-05-14 11:42:00,
2013-05-14 04:47:00,77.0,35.3,30.05,SE,135,8.0,8.0,22,0.00,,SKC,0.00,VWS V14.01,2013-05-14 11:47:00,
2013-05-14 04:52:00,77.0,35.3,30.05,SSE,158,3.0,4.0,22,0.00,,SKC,0.00,VWS V14.01,2013-05-14 11:52:00,
2013-05-14 04:57:00,77.0,35.3,30.05,West,270,0.0,1.0,22,0.00,,SKC,0.00,VWS V14.01,2013-05-14 11:57:00,
2013-05-14 05:02:00,77.0,36.4,30.04,SW,225,1.0,2.0,23,0.00,,SKC,0.00,VWS V14.01,2013-05-14 12:02:00,
2013-05-14 05:07:00,76.0,35.6,30.05,SW,225,0.0,0.0,23,0.00,,SKC,0.00,VWS V14.01,2013-05-14 12:07:00,
2013-05-14 05:12:00,76.0,35.6,30.04,SSW,202,1.0,2.0,23,0.00,,SKC,0.00,VWS V14.01,2013-05-14 12:12:00,
2013-05-14 05:17:00,76.0,35.6,30.05,WSW,248,0.0,1.0,23,0.00,,SKC,0.00,VWS V14.01,2013-05-14 12:17:00,
2013-05-14 05:22:00,75.0,35.8,30.05,WSW,248,4.0,4.0,24,0.00,,SKC,0.00,VWS V14.01,2013-05-14 12:22:00,
2013-05-14 05:27:00,75.0,35.8,30.05,South,180,1.0,1.0,24,0.00,,SKC,0.00,VWS V14.01,2013-05-14 12:27:00,
2013-05-14 05:32:00,74.0,35.0,30.05,SW,225,5.0,5.0,24,0.00,,SKC,0.00,VWS V14.01,2013-05-14 12:32:00,
2013-05-14 05:37:00,74.0,35.0,30.05,SSW,202,5.0,5.0,24,0.00,,SKC,0.00,VWS V14.01,2013-05-14 12:37:00,
2013-05-14 05:42:00,74.0,35.0,30.05,South,180,1.0,2.0,24,0.00,,SKC,0.00,VWS V14.01,2013-05-14 12:42:00,
2013-05-14 05:47:00,74.0,35.0,30.05,SE,135,2.0,3.0,24,0.00,,SKC,0.00,VWS V14.01,2013-05-14 12:47:00,
2013-05-14 05:52:00,74.0,33.9,30.05,ENE,68,0.0,0.0,23,0.00,,SKC,0.00,VWS V14.01,2013-05-14 12:52:00,
2013-05-14 05:57:00,73.0,33.0,30.06,SSE,158,0.0,0.0,23,0.00,,SKC,0.00,VWS V14.01,2013-05-14 12:57:00,
2013-05-14 06:02:00,73.0,33.0,30.06,SSE,158,0.0,0.0,23,0.00,,SKC,0.00,VWS V14.01,2013-05-14 13:02:00,
2013-05-14 06:07:00,73.0,33.0,30.06,SSE,158,0.0,0.0,23,0.00,,SKC,0.00,VWS V14.01,2013-05-14 13:07:00,
2013-05-14 06:12:00,73.0,34.1,30.06,SSE,158,0.0,0.0,24,0.00,,SKC,0.00,VWS V14.01,2013-05-14 13:12:00,
2013-05-14 06:17:00,73.0,34.1,30.06,SSE,158,0.0,0.0,24,0.00,,SKC,0.00,VWS V14.01,2013-05-14 13:17:00,
2013-05-14 06:22:00,73.0,35.1,30.06,SSE,158,0.0,0.0,25,0.00,,SKC,0.00,VWS V14.01,2013-05-14 13:22:00,
2013-05-14 06:27:00,73.0,36.1,30.06,East,90,0.0,0.0,26,0.00,,SKC,0.00,VWS V14.01,2013-05-14 13:27:00,
2013-05-14 06:32:00,73.0,36.1,30.07,East,90,0.0,0.0,26,0.00,,SKC,0.00,VWS V14.01,2013-05-14 13:32:00,
2013-05-14 06:37:00,72.0,35.3,30.07,East,90,0.0,0.0,26,0.00,,SKC,0.00,VWS V14.01,2013-05-14 13:37:00,
2013-05-14 06:42:00,72.0,35.3,30.07,ENE,68,4.0,4.0,26,0.00,,SKC,0.00,VWS V14.01,2013-05-14 13:42:00,
2013-05-14 06:47:00,72.0,36.2,30.07,ENE,68,0.0,0.0,27,0.00,,SKC,0.00,VWS V14.01,2013-05-14 13:47:00,
2013-05-14 06:52:00,72.0,36.2,30.07,ENE,68,0.0,0.0,27,0.00,,SKC,0.00,VWS V14.01,2013-05-14 13:52:00,
2013-05-14 06:57:00,73.0,38.0,30.07,NNE,22,0.0,0.0,28,0.00,,SKC,0.00,VWS V14.01,2013-05-14 13:57:00,
2013-05-14 07:02:00,73.0,37.1,30.07,NE,45,0.0,0.0,27,0.00,,SKC,0.00,VWS V14.01,2013-05-14 14:02:00,
2013-05-14 07:07:00,73.0,37.1,30.07,NNW,338,0.0,0.0,27,0.00,,SKC,0.00,VWS V14.01,2013-05-14 14:07:00,
2013-05-14 07:12:00,74.0,37.0,30.07,SE,135,3.0,3.0,26,0.00,,SKC,0.00,VWS V14.01,2013-05-14 14:12:00,
2013-05-14 07:17:00,75.0,36.8,30.07,ESE,112,3.0,3.0,25,0.00,,SKC,0.00,VWS V14.01,2013-05-14 14:17:00,
2013-05-14 07:22:00,75.0,35.8,30.07,ENE,68,1.0,2.0,24,0.00,,SKC,0.00,VWS V14.01,2013-05-14 14:22:00,
2013-05-14 07:27:00,76.0,36.6,30.08,East,90,2.0,2.0,24,0.00,,SKC,0.00,VWS V14.01,2013-05-14 14:27:00,
2013-05-14 07:32:00,76.0,35.6,30.08,SSE,158,3.0,3.0,23,0.00,,SKC,0.00,VWS V14.01,2013-05-14 14:32:00,
2013-05-14 07:37:00,76.0,34.5,30.08,SE,135,2.0,3.0,22,0.00,,SKC,0.00,VWS V14.01,2013-05-14 14:37:00,
2013-05-14 07:42:00,77.0,35.3,30.08,SSE,158,1.0,3.0,22,0.00,,SKC,0.00,VWS V14.01,2013-05-14 14:42:00,
2013-05-14 07:47:00,76.0,35.6,30.08,South,180,0.0,0.0,23,0.00,,SKC,0.00,VWS V14.01,2013-05-14 14:47:00,
2013-05-14 07:52:00,76.0,36.6,30.08,South,180,1.0,1.0,24,0.00,,SKC,0.00,VWS V14.01,2013-05-14 14:52:00,
2013-05-14 07:57:00,77.0,37.5,30.08,SE,135,0.0,0.0,24,0.00,,SKC,0.00,VWS V14.01,2013-05-14 14:57:00,
2013-05-14 08:02:00,77.0,37.5,30.08,SE,135,0.0,0.0,24,0.00,,SKC,0.00,VWS V14.01,2013-05-14 15:02:00,
2013-05-14 08:07:00,77.0,37.5,30.08,SSE,158,0.0,0.0,24,0.00,,SKC,0.00,VWS V14.01,2013-05-14 15:07:00,
2013-05-14 08:12:00,77.0,37.5,30.08,ESE,112,0.0,0.0,24,0.00,,SKC,0.00,VWS V14.01,2013-05-14 15:12:00,
2013-05-14 08:17:00,77.0,37.5,30.08,ESE,112,0.0,0.0,24,0.00,,SKC,0.00,VWS V14.01,2013-05-14 15:17:00,
2013-05-14 08:22:00,77.0,37.5,30.08,ENE,68,0.0,0.0,24,0.00,,SKC,0.00,VWS V14.01,2013-05-14 15:22:00,
2013-05-14 08:27:00,78.0,38.3,30.09,ENE,68,0.0,0.0,24,0.00,,SKC,0.00,VWS V14.01,2013-05-14 15:27:00,
2013-05-14 08:32:00,78.0,37.2,30.08,ENE,68,2.0,2.0,23,0.00,,SKC,0.00,VWS V14.01,2013-05-14 15:32:00,
2013-05-14 08:37:00,79.0,37.0,30.08,East,90,0.0,0.0,22,0.00,,SKC,0.00,VWS V14.01,2013-05-14 15:37:00,
2013-05-14 08:42:00,80.0,37.8,30.08,East,90,0.0,0.0,22,0.00,,SKC,0.00,VWS V14.01,2013-05-14 15:42:00,
2013-05-14 08:47:00,80.0,37.8,30.08,NW,315,0.0,0.0,22,0.00,,SKC,0.00,VWS V14.01,2013-05-14 15:47:00,
2013-05-14 08:52:00,80.0,37.8,30.08,SSW,202,2.0,3.0,22,0.00,,SKC,0.00,VWS V14.01,2013-05-14 15:52:00,
2013-05-14 08:57:00,81.0,38.6,30.08,SSE,158,1.0,1.0,22,0.00,,SKC,0.00,VWS V14.01,2013-05-14 15:57:00,
2013-05-14 09:02:00,81.0,37.4,30.08,WSW,248,3.0,3.0,21,0.00,,SKC,0.00,VWS V14.01,2013-05-14 16:02:00,
2013-05-14 09:07:00,82.0,38.2,30.08,SW,225,0.0,1.0,21,0.00,,SKC,0.00,VWS V14.01,2013-05-14 16:07:00,
2013-05-14 09:12:00,83.0,37.8,30.08,SW,225,3.0,3.0,20,0.00,,SKC,0.00,VWS V14.01,2013-05-14 16:12:00,
2013-05-14 09:17:00,83.0,37.8,30.08,SW,225,3.0,4.0,20,0.00,,SKC,0.00,VWS V14.01,2013-05-14 16:17:00,
2013-05-14 09:22:00,83.0,36.5,30.07,SSW,202,5.0,6.0,19,0.00,,SKC,0.00,VWS V14.01,2013-05-14 16:22:00,
2013-05-14 09:27:00,84.0,36.0,30.07,SW,225,2.0,3.0,18,0.00,,SKC,0.00,VWS V14.01,2013-05-14 16:27:00,
2013-05-14 09:32:00,85.0,36.8,30.08,SW,225,2.0,3.0,18,0.00,,SKC,0.00,VWS V14.01,2013-05-14 16:32:00,
2013-05-14 09:37:00,85.0,36.8,30.08,SE,135,7.0,8.0,18,0.00,,SKC,0.00,VWS V14.01,2013-05-14 16:37:00,
2013-05-14 09:42:00,86.0,36.2,30.08,SSE,158,6.0,6.0,17,0.00,,SKC,0.00,VWS V14.01,2013-05-14 16:42:00,
2013-05-14 09:47:00,86.0,37.6,30.08,SW,225,4.0,6.0,18,0.00,,SKC,0.00,VWS V14.01,2013-05-14 16:47:00,
2013-05-14 09:52:00,85.0,36.8,30.07,WNW,292,3.0,4.0,18,0.00,,SKC,0.00,VWS V14.01,2013-05-14 16:52:00,
2013-05-14 09:57:00,85.0,36.8,30.07,West,270,1.0,1.0,18,0.00,,SKC,0.00,VWS V14.01,2013-05-14 16:57:00,
2013-05-14 10:02:00,86.0,37.6,30.07,ENE,68,2.0,3.0,18,0.00,,SKC,0.00,VWS V14.01,2013-05-14 17:02:00,
2013-05-14 10:07:00,87.0,37.0,30.07,ESE,112,6.0,6.0,17,0.00,,SKC,0.00,VWS V14.01,2013-05-14 17:07:00,
2013-05-14 10:12:00,87.0,35.4,30.07,SSW,202,4.0,4.0,16,0.00,,SKC,0.00,VWS V14.01,2013-05-14 17:12:00,
2013-05-14 10:17:00,87.0,35.4,30.07,West,270,2.0,3.0,16,0.00,,SKC,0.00,VWS V14.01,2013-05-14 17:17:00,
2013-05-14 10:22:00,87.0,35.4,30.07,SSW,202,1.0,2.0,16,0.00,,SKC,0.00,VWS V14.01,2013-05-14 17:22:00,
2013-05-14 10:27:00,87.0,35.4,30.06,West,270,1.0,2.0,16,0.00,,SKC,0.00,VWS V14.01,2013-05-14 17:27:00,
2013-05-14 10:32:00,88.0,34.6,30.07,ENE,68,2.0,3.0,15,0.00,,SKC,0.00,VWS V14.01,2013-05-14 17:32:00,
2013-05-14 10:37:00,88.0,34.6,30.07,SW,225,3.0,3.0,15,0.00,,SKC,0.00,VWS V14.01,2013-05-14 17:37:00,
2013-05-14 10:42:00,88.0,34.6,30.06,WSW,248,0.0,0.0,15,0.00,,SKC,0.00,VWS V14.01,2013-05-14 17:42:00,
2013-05-14 10:47:00,88.0,36.2,30.06,SW,225,0.0,0.0,16,0.00,,SKC,0.00,VWS V14.01,2013-05-14 17:47:00,
2013-05-14 10:52:00,89.0,33.7,30.06,SW,225,3.0,5.0,14,0.00,,SKC,0.00,VWS V14.01,2013-05-14 17:52:00,
2013-05-14 10:57:00,89.0,33.7,30.06,SSW,202,3.0,3.0,14,0.00,,SKC,0.00,VWS V14.01,2013-05-14 17:57:00,
2013-05-14 11:02:00,89.0,33.7,30.06,SSE,158,5.0,6.0,14,0.00,,SKC,0.00,VWS V14.01,2013-05-14 18:02:00,
2013-05-14 11:07:00,90.0,34.5,30.06,SE,135,6.0,6.0,14,0.00,,SKC,0.00,VWS V14.01,2013-05-14 18:07:00,
2013-05-14 11:12:00,89.0,35.4,30.06,ENE,68,4.0,5.0,15,0.00,,SKC,0.00,VWS V14.01,2013-05-14 18:12:00,
2013-05-14 11:17:00,89.0,35.4,30.06,NE,45,5.0,6.0,15,0.00,,SKC,0.00,VWS V14.01,2013-05-14 18:17:00,
2013-05-14 11:22:00,89.0,33.7,30.05,ENE,68,3.0,4.0,14,0.00,,SKC,0.00,VWS V14.01,2013-05-14 18:22:00,
2013-05-14 11:27:00,89.0,33.7,30.05,SSW,202,4.0,4.0,14,0.00,,SKC,0.00,VWS V14.01,2013-05-14 18:27:00,
2013-05-14 11:32:00,91.0,37.0,30.05,WSW,248,3.0,3.0,15,0.00,,SKC,0.00,VWS V14.01,2013-05-14 18:32:00,
2013-05-14 11:37:00,90.0,36.2,30.05,SW,225,2.0,2.0,15,0.00,,SKC,0.00,VWS V14.01,2013-05-14 18:37:00,
2013-05-14 11:42:00,90.0,36.2,30.05,WNW,292,6.0,9.0,15,0.00,,SKC,0.00,VWS V14.01,2013-05-14 18:42:00,
2013-05-14 11:47:00,90.0,36.2,30.05,West,270,8.0,11.0,15,0.00,,SKC,0.00,VWS V14.01,2013-05-14 18:47:00,
2013-05-14 11:52:00,91.0,35.2,30.05,ENE,68,5.0,5.0,14,0.00,,SKC,0.00,VWS V14.01,2013-05-14 18:52:00,
2013-05-14 11:57:00,91.0,35.2,30.05,SW,225,3.0,4.0,14,0.00,,SKC,0.00,VWS V14.01,2013-05-14 18:57:00,
2013-05-14 12:02:00,91.0,35.2,30.04,SW,225,5.0,6.0,14,0.00,,SKC,0.00,VWS V14.01,2013-05-14 19:02:00,
2013-05-14 12:07:00,92.0,36.0,30.04,SSE,158,5.0,5.0,14,0.00,,SKC,0.00,VWS V14.01,2013-05-14 19:07:00,
2013-05-14 12:12:00,93.0,35.0,30.04,SSW,202,3.0,5.0,13,0.00,,SKC,0.00,VWS V14.01,2013-05-14 19:12:00,
2013-05-14 12:17:00,94.0,33.7,30.04,SE,135,6.0,6.0,12,0.00,,SKC,0.00,VWS V14.01,2013-05-14 19:17:00,
2013-05-14 12:22:00,93.0,35.0,30.04,NE,45,1.0,1.0,13,0.00,,SKC,0.00,VWS V14.01,2013-05-14 19:22:00,
2013-05-14 12:27:00,94.0,33.7,30.03,SSE,158,5.0,6.0,12,0.00,,SKC,0.00,VWS V14.01,2013-05-14 19:27:00,
2013-05-14 12:32:00,94.0,33.7,30.03,SSE,158,5.0,5.0,12,0.00,,SKC,0.00,VWS V14.01,2013-05-14 19:32:00,
2013-05-14 12:37:00,93.0,33.0,30.03,ESE,112,3.0,5.0,12,0.00,,SKC,0.00,VWS V14.01,2013-05-14 19:37:00,
2013-05-14 12:43:00,94.0,33.7,30.03,ESE,112,2.0,3.0,12,0.00,,SKC,0.00,VWS V14.01,2013-05-14 19:43:00,
2013-05-14 12:48:00,94.0,33.7,30.03,East,90,1.0,1.0,12,0.00,,SKC,0.00,VWS V14.01,2013-05-14 19:48:00,
2013-05-14 12:53:00,94.0,33.7,30.02,SW,225,8.0,8.0,12,0.00,,SKC,0.00,VWS V14.01,2013-05-14 19:53:00,
2013-05-14 12:58:00,94.0,33.7,30.02,WSW,248,7.0,8.0,12,0.00,,SKC,0.00,VWS V14.01,2013-05-14 19:58:00,
2013-05-14 13:03:00,94.0,33.7,30.02,West,270,6.0,6.0,12,0.00,,SKC,0.00,VWS V14.01,2013-05-14 20:03:00,
2013-05-14 13:08:00,94.0,33.7,30.02,WSW,248,5.0,5.0,12,0.00,,SKC,0.00,VWS V14.01,2013-05-14 20:08:00,
2013-05-14 13:13:00,94.0,33.7,30.02,ENE,68,2.0,4.0,12,0.00,,SKC,0.00,VWS V14.01,2013-05-14 20:13:00,
2013-05-14 13:18:00,93.0,33.0,30.02,NE,45,5.0,6.0,12,0.00,,SKC,0.00,VWS V14.01,2013-05-14 20:18:00,
2013-05-14 13:23:00,93.0,33.0,30.01,ESE,112,3.0,3.0,12,0.00,,SKC,0.00,VWS V14.01,2013-05-14 20:23:00,
2013-05-14 13:28:00,94.0,31.6,30.01,WSW,248,6.0,9.0,11,0.00,,SKC,0.00,VWS V14.01,2013-05-14 20:28:00,
2013-05-14 13:33:00,95.0,32.3,30.01,WSW,248,5.0,7.0,11,0.00,,SKC,0.00,VWS V14.01,2013-05-14 20:33:00,
2013-05-14 13:38:00,94.0,31.6,30.01,West,270,6.0,7.0,11,0.00,,SKC,0.00,VWS V14.01,2013-05-14 20:38:00,
2013-05-14 13:43:00,94.0,31.6,30.01,WSW,248,14.0,15.0,11,0.00,,SKC,0.00,VWS V14.01,2013-05-14 20:43:00,
2013-05-14 13:48:00,94.0,31.6,30.01,WSW,248,6.0,6.0,11,0.00,,SKC,0.00,VWS V14.01,2013-05-14 20:48:00,
2013-05-14 13:53:00,94.0,31.6,30.00,WNW,292,2.0,3.0,11,0.00,,SKC,0.00,VWS V14.01,2013-05-14 20:53:00,
2013-05-14 13:58:00,95.0,32.3,30.00,WSW,248,6.0,7.0,11,0.00,,SKC,0.00,VWS V14.01,2013-05-14 20:58:00,
2013-05-14 14:03:00,94.0,31.6,30.00,WSW,248,10.0,14.0,11,0.00,,SKC,0.00,VWS V14.01,2013-05-14 21:03:00,
2013-05-14 14:08:00,94.0,31.6,30.00,WSW,248,5.0,7.0,11,0.00,,SKC,0.00,VWS V14.01,2013-05-14 21:08:00,
2013-05-14 14:13:00,95.0,32.3,29.99,SSW,202,5.0,6.0,11,0.00,,SKC,0.00,VWS V14.01,2013-05-14 21:13:00,
2013-05-14 14:18:00,95.0,32.3,29.99,WSW,248,5.0,8.0,11,0.00,,SKC,0.00,VWS V14.01,2013-05-14 21:18:00,
2013-05-14 14:23:00,95.0,32.3,29.99,WSW,248,6.0,6.0,11,0.00,,SKC,0.00,VWS V14.01,2013-05-14 21:23:00,
2013-05-14 14:28:00,94.0,31.6,29.99,WSW,248,3.0,5.0,11,0.00,,SKC,0.00,VWS V14.01,2013-05-14 21:28:00,
2013-05-14 14:33:00,96.0,33.1,29.99,SW,225,6.0,6.0,11,0.00,,SKC,0.00,VWS V14.01,2013-05-14 21:33:00,
2013-05-14 14:38:00,96.0,33.1,29.98,West,270,8.0,10.0,11,0.00,,SKC,0.00,VWS V14.01,2013-05-14 21:38:00,
2013-05-14 14:43:00,95.0,32.3,29.98,WSW,248,3.0,4.0,11,0.00,,SKC,0.00,VWS V14.01,2013-05-14 21:43:00,
2013-05-14 14:48:00,95.0,32.3,29.98,WNW,292,10.0,10.0,11,0.00,,SKC,0.00,VWS V14.01,2013-05-14 21:48:00,
2013-05-14 14:53:00,95.0,32.3,29.98,SW,225,6.0,9.0,11,0.00,,SKC,0.00,VWS V14.01,2013-05-14 21:53:00,
2013-05-14 14:58:00,95.0,32.3,29.98,NW,315,11.0,11.0,11,0.00,,SKC,0.00,VWS V14.01,2013-05-14 21:58:00,
2013-05-14 15:03:00,95.0,32.3,29.98,West,270,10.0,10.0,11,0.00,,SKC,0.00,VWS V14.01,2013-05-14 22:03:00,
2013-05-14 15:09:00,94.0,33.7,29.98,West,270,11.0,11.0,12,0.00,,SKC,0.00,VWS V14.01,2013-05-14 22:09:00,
2013-05-14 15:14:00,94.0,33.7,29.98,SW,225,3.0,4.0,12,0.00,,SKC,0.00,VWS V14.01,2013-05-14 22:14:00,
2013-05-14 15:19:00,95.0,34.5,29.97,WSW,248,3.0,3.0,12,0.00,,SKC,0.00,VWS V14.01,2013-05-14 22:19:00,
2013-05-14 15:24:00,95.0,32.3,29.97,SW,225,9.0,10.0,11,0.00,,SKC,0.00,VWS V14.01,2013-05-14 22:24:00,
2013-05-14 15:29:00,94.0,33.7,29.97,SW,225,9.0,10.0,12,0.00,,SKC,0.00,VWS V14.01,2013-05-14 22:29:00,
2013-05-14 15:34:00,95.0,34.5,29.97,SSW,202,3.0,3.0,12,0.00,,SKC,0.00,VWS V14.01,2013-05-14 22:34:00,
2013-05-14 15:39:00,95.0,34.5,29.97,WSW,248,16.0,19.0,12,0.00,,SKC,0.00,VWS V14.01,2013-05-14 22:39:00,
2013-05-14 15:44:00,94.0,33.7,29.97,WSW,248,9.0,9.0,12,0.00,,SKC,0.00,VWS V14.01,2013-05-14 22:44:00,
2013-05-14 15:49:00,95.0,34.5,29.96,West,270,5.0,5.0,12,0.00,,SKC,0.00,VWS V14.01,2013-05-14 22:49:00,
2013-05-14 15:54:00,96.0,35.3,29.97,SSW,202,6.0,7.0,12,0.00,,SKC,0.00,VWS V14.01,2013-05-14 22:54:00,
2013-05-14 16:00:00,96.0,35.3,29.96,SSW,202,6.0,8.0,12,0.00,,SKC,0.00,VWS V14.01,2013-05-14 23:00:00,
2013-05-14 16:06:00,95.0,34.5,29.96,West,270,6.0,7.0,12,0.00,,SKC,0.00,VWS V14.01,2013-05-14 23:06:00,
2013-05-14 16:11:00,95.0,34.5,29.96,WNW,292,8.0,8.0,12,0.00,,SKC,0.00,VWS V14.01,2013-05-14 23:11:00,
2013-05-14 16:16:00,95.0,36.5,29.96,WNW,292,2.0,3.0,13,0.00,,SKC,0.00,VWS V14.01,2013-05-14 23:16:00,
2013-05-14 16:21:00,95.0,34.5,29.96,WSW,248,8.0,10.0,12,0.00,,SKC,0.00,VWS V14.01,2013-05-14 23:21:00,
2013-05-14 16:26:00,95.0,34.5,29.96,WNW,292,13.0,13.0,12,0.00,,SKC,0.00,VWS V14.01,2013-05-14 23:26:00,
2013-05-14 16:31:00,95.0,34.5,29.96,West,270,8.0,9.0,12,0.00,,SKC,0.00,VWS V14.01,2013-05-14 23:31:00,
2013-05-14 16:36:00,94.0,33.7,29.96,WSW,248,6.0,6.0,12,0.00,,SKC,0.00,VWS V14.01,2013-05-14 23:36:00,
2013-05-14 16:41:00,94.0,33.7,29.96,West,270,9.0,14.0,12,0.00,,SKC,0.00,VWS V14.01,2013-05-14 23:41:00,
2013-05-14 16:46:00,94.0,33.7,29.96,WSW,248,8.0,8.0,12,0.00,,SKC,0.00,VWS V14.01,2013-05-14 23:46:00,
2013-05-14 16:51:00,94.0,33.7,29.96,West,270,8.0,9.0,12,0.00,,SKC,0.00,VWS V14.01,2013-05-14 23:51:00,
2013-05-14 16:56:00,94.0,33.7,29.96,West,270,7.0,7.0,12,0.00,,SKC,0.00,VWS V14.01,2013-05-14 23:56:00,
2013-05-14 17:01:00,94.0,33.7,29.95,WNW,292,9.0,11.0,12,0.00,,SKC,0.00,VWS V14.01,2013-05-15 00:01:00,
2013-05-14 17:07:00,95.0,34.5,29.95,West,270,2.0,3.0,12,0.00,,SKC,0.00,VWS V14.01,2013-05-15 00:07:00,
2013-05-14 17:13:00,95.0,34.5,29.95,NW,315,7.0,8.0,12,0.00,,SKC,0.00,VWS V14.01,2013-05-15 00:13:00,
2013-05-14 17:19:00,94.0,33.7,29.95,WNW,292,9.0,10.0,12,0.00,,SKC,0.00,VWS V14.01,2013-05-15 00:19:00,
2013-05-14 17:25:00,94.0,33.7,29.95,WNW,292,6.0,6.0,12,0.00,,SKC,0.00,VWS V14.01,2013-05-15 00:25:00,
2013-05-14 17:31:00,94.0,33.7,29.95,WNW,292,8.0,10.0,12,0.00,,SKC,0.00,VWS V14.01,2013-05-15 00:31:00,
2013-05-14 17:37:00,94.0,33.7,29.95,WNW,292,7.0,7.0,12,0.00,,SKC,0.00,VWS V14.01,2013-05-15 00:37:00,
2013-05-14 17:42:00,93.0,33.0,29.95,WNW,292,8.0,8.0,12,0.00,,SKC,0.00,VWS V14.01,2013-05-15 00:42:00,
2013-05-14 17:47:00,94.0,33.7,29.95,SW,225,5.0,5.0,12,0.00,,SKC,0.00,VWS V14.01,2013-05-15 00:47:00,
2013-05-14 17:52:00,94.0,33.7,29.95,SW,225,9.0,9.0,12,0.00,,SKC,0.00,VWS V14.01,2013-05-15 00:52:00,
2013-05-14 17:57:00,94.0,33.7,29.95,WNW,292,5.0,6.0,12,0.00,,SKC,0.00,VWS V14.01,2013-05-15 00:57:00,
2013-05-14 18:02:00,94.0,33.7,29.95,WSW,248,5.0,5.0,12,0.00,,SKC,0.00,VWS V14.01,2013-05-15 01:02:00,
2013-05-14 18:08:00,94.0,35.7,29.95,WNW,292,8.0,8.0,13,0.00,,SKC,0.00,VWS V14.01,2013-05-15 01:08:00,
2013-05-14 18:14:00,93.0,35.0,29.95,NW,315,11.0,11.0,13,0.00,,SKC,0.00,VWS V14.01,2013-05-15 01:14:00,
2013-05-14 18:19:00,93.0,35.0,29.95,South,180,5.0,6.0,13,0.00,,SKC,0.00,VWS V14.01,2013-05-15 01:19:00,
2013-05-14 18:24:00,93.0,35.0,29.95,WNW,292,6.0,10.0,13,0.00,,SKC,0.00,VWS V14.01,2013-05-15 01:24:00,
2013-05-14 18:29:00,92.0,34.2,29.95,WNW,292,10.0,10.0,13,0.00,,SKC,0.00,VWS V14.01,2013-05-15 01:29:00,
2013-05-14 18:34:00,92.0,34.2,29.95,West,270,8.0,8.0,13,0.00,,SKC,0.00,VWS V14.01,2013-05-15 01:34:00,
2013-05-14 18:40:00,92.0,34.2,29.95,West,270,7.0,8.0,13,0.00,,SKC,0.00,VWS V14.01,2013-05-15 01:40:00,
2013-05-14 18:46:00,92.0,34.2,29.95,WNW,292,6.0,7.0,13,0.00,,SKC,0.00,VWS V14.01,2013-05-15 01:46:00,
2013-05-14 18:52:00,91.0,33.4,29.95,NNW,338,5.0,6.0,13,0.00,,SKC,0.00,VWS V14.01,2013-05-15 01:52:00,
2013-05-14 18:57:00,91.0,33.4,29.95,WNW,292,8.0,8.0,13,0.00,,SKC,0.00,VWS V14.01,2013-05-15 01:57:00,
2013-05-14 19:02:00,90.0,34.5,29.95,WNW,292,4.0,5.0,14,0.00,,SKC,0.00,VWS V14.01,2013-05-15 02:02:00,
2013-05-14 19:07:00,90.0,34.5,29.95,WNW,292,4.0,5.0,14,0.00,,SKC,0.00,VWS V14.01,2013-05-15 02:07:00,
2013-05-14 19:12:00,90.0,34.5,29.96,NW,315,3.0,3.0,14,0.00,,SKC,0.00,VWS V14.01,2013-05-15 02:12:00,
2013-05-14 19:17:00,90.0,34.5,29.96,NNW,338,4.0,6.0,14,0.00,,SKC,0.00,VWS V14.01,2013-05-15 02:17:00,
2013-05-14 19:23:00,89.0,33.7,29.96,NW,315,3.0,3.0,14,0.00,,SKC,0.00,VWS V14.01,2013-05-15 02:23:00,
2013-05-14 19:28:00,89.0,33.7,29.96,NW,315,5.0,5.0,14,0.00,,SKC,0.00,VWS V14.01,2013-05-15 02:28:00,
2013-05-14 19:33:00,89.0,33.7,29.96,NW,315,2.0,3.0,14,0.00,,SKC,0.00,VWS V14.01,2013-05-15 02:33:00,
2013-05-14 19:38:00,88.0,32.9,29.96,NW,315,3.0,3.0,14,0.00,,SKC,0.00,VWS V14.01,2013-05-15 02:38:00,
2013-05-14 19:43:00,88.0,34.6,29.96,NW,315,0.0,0.0,15,0.00,,SKC,0.00,VWS V14.01,2013-05-15 02:43:00,
2013-05-14 19:49:00,88.0,34.6,29.96,NW,315,0.0,0.0,15,0.00,,SKC,0.00,VWS V14.01,2013-05-15 02:49:00,
2013-05-14 19:54:00,87.0,33.8,29.96,NW,315,0.0,0.0,15,0.00,,SKC,0.00,VWS V14.01,2013-05-15 02:54:00,
2013-05-14 19:59:00,87.0,33.8,29.96,NW,315,0.0,0.0,15,0.00,,SKC,0.00,VWS V14.01,2013-05-15 02:59:00,
2013-05-14 20:04:00,86.0,33.0,29.96,NW,315,0.0,0.0,15,0.00,,SKC,0.00,VWS V14.01,2013-05-15 03:04:00,
2013-05-14 20:09:00,86.0,33.0,29.96,North,0,0.0,0.0,15,0.00,,SKC,0.00,VWS V14.01,2013-05-15 03:09:00,
2013-05-14 20:15:00,86.0,33.0,29.96,NNW,338,0.0,0.0,15,0.00,,SKC,0.00,VWS V14.01,2013-05-15 03:15:00,
2013-05-14 20:21:00,86.0,34.6,29.96,NNW,338,1.0,2.0,16,0.00,,SKC,0.00,VWS V14.01,2013-05-15 03:21:00,
2013-05-14 20:27:00,86.0,34.6,29.97,North,0,2.0,2.0,16,0.00,,SKC,0.00,VWS V14.01,2013-05-15 03:27:00,
2013-05-14 20:32:00,86.0,34.6,29.97,North,0,2.0,3.0,16,0.00,,SKC,0.00,VWS V14.01,2013-05-15 03:32:00,
2013-05-14 20:37:00,85.0,33.8,29.97,NNE,22,3.0,3.0,16,0.00,,SKC,0.00,VWS V14.01,2013-05-15 03:37:00,
2013-05-14 20:42:00,85.0,33.8,29.97,NNE,22,2.0,2.0,16,0.00,,SKC,0.00,VWS V14.01,2013-05-15 03:42:00,
2013-05-14 20:47:00,84.0,34.5,29.97,North,0,0.0,0.0,17,0.00,,SKC,0.00,VWS V14.01,2013-05-15 03:47:00,
2013-05-14 20:53:00,84.0,34.5,29.98,North,0,0.0,0.0,17,0.00,,SKC,0.00,VWS V14.01,2013-05-15 03:53:00,
2013-05-14 20:59:00,83.0,35.2,29.99,SW,225,5.0,5.0,18,0.00,,SKC,0.00,VWS V14.01,2013-05-15 03:59:00,
2013-05-14 21:01:00,83.0,35.2,29.99,SW,225,6.0,6.0,18,0.00,,SKC,0.00,VWS V14.01,2013-05-15 04:01:00,
2013-05-14 21:02:00,83.0,35.2,29.99,SW,225,8.0,9.0,18,0.00,,SKC,0.00,VWS V14.01,2013-05-15 04:02:00,
2013-05-14 21:03:00,83.0,35.2,29.99,West,270,5.0,5.0,18,0.00,,SKC,0.00,VWS V14.01,2013-05-15 04:03:00,
2013-05-14 21:05:00,83.0,35.2,30.00,WSW,248,4.0,4.0,18,0.00,,SKC,0.00,VWS V14.01,2013-05-15 04:05:00,
2013-05-14 21:10:00,83.0,35.2,29.99,West,270,2.0,3.0,18,0.00,,SKC,0.00,VWS V14.01,2013-05-15 04:10:00,
2013-05-14 21:15:00,83.0,36.5,30.00,SW,225,6.0,8.0,19,0.00,,SKC,0.00,VWS V14.01,2013-05-15 04:15:00,
2013-05-14 21:20:00,84.0,37.3,30.00,WNW,292,6.0,6.0,19,0.00,,SKC,0.00,VWS V14.01,2013-05-15 04:20:00,
2013-05-14 21:21:00,84.0,37.3,30.00,WSW,248,6.0,6.0,19,0.00,,SKC,0.00,VWS V14.01,2013-05-15 04:21:00,
2013-05-14 21:26:00,83.0,36.5,30.00,WNW,292,6.0,6.0,19,0.00,,SKC,0.00,VWS V14.01,2013-05-15 04:26:00,
2013-05-14 21:31:00,83.0,36.5,30.00,WSW,248,3.0,3.0,19,0.00,,SKC,0.00,VWS V14.01,2013-05-15 04:31:00,
2013-05-14 21:37:00,83.0,37.8,30.00,WNW,292,5.0,7.0,20,0.00,,SKC,0.00,VWS V14.01,2013-05-15 04:37:00,
2013-05-14 21:42:00,83.0,37.8,30.01,West,270,5.0,6.0,20,0.00,,SKC,0.00,VWS V14.01,2013-05-15 04:42:00,
2013-05-14 21:48:00,83.0,37.8,30.01,West,270,6.0,6.0,20,0.00,,SKC,0.00,VWS V14.01,2013-05-15 04:48:00,
2013-05-14 21:54:00,83.0,37.8,30.02,SW,225,7.0,8.0,20,0.00,,SKC,0.00,VWS V14.01,2013-05-15 04:54:00,
2013-05-14 22:00:00,82.0,37.0,30.02,WSW,248,5.0,5.0,20,0.00,,SKC,0.00,VWS V14.01,2013-05-15 05:00:00,
2013-05-14 22:05:00,82.0,37.0,30.02,WSW,248,3.0,4.0,20,0.00,,SKC,0.00,VWS V14.01,2013-05-15 05:05:00,
2013-05-14 22:10:00,82.0,37.0,30.02,WSW,248,6.0,8.0,20,0.00,,SKC,0.00,VWS V14.01,2013-05-15 05:10:00,
2013-05-14 22:15:00,82.0,38.2,30.02,SSW,202,4.0,5.0,21,0.00,,SKC,0.00,VWS V14.01,2013-05-15 05:15:00,
2013-05-14 22:23:00,82.0,38.2,30.02,WSW,248,4.0,5.0,21,0.00,,SKC,0.00,VWS V14.01,2013-05-15 05:23:00,
2013-05-14 22:28:00,81.0,37.4,30.02,WSW,248,0.0,1.0,21,0.00,,SKC,0.00,VWS V14.01,2013-05-15 05:28:00,
2013-05-14 22:33:00,81.0,37.4,30.02,WNW,292,0.0,1.0,21,0.00,,SKC,0.00,VWS V14.01,2013-05-15 05:33:00,
2013-05-14 22:38:00,81.0,37.4,30.02,NW,315,0.0,0.0,21,0.00,,SKC,0.00,VWS V14.01,2013-05-15 05:38:00,
2013-05-14 22:43:00,80.0,36.6,30.03,NNW,338,0.0,0.0,21,0.00,,SKC,0.00,VWS V14.01,2013-05-15 05:43:00,
2013-05-14 22:49:00,80.0,37.8,30.02,NNW,338,0.0,0.0,22,0.00,,SKC,0.00,VWS V14.01,2013-05-15 05:49:00,
2013-05-14 22:54:00,80.0,37.8,30.03,North,0,0.0,0.0,22,0.00,,SKC,0.00,VWS V14.01,2013-05-15 05:54:00,
2013-05-14 22:59:00,79.0,37.0,30.03,NE,45,0.0,0.0,22,0.00,,SKC,0.00,VWS V14.01,2013-05-15 05:59:00,
2013-05-14 23:05:00,80.0,37.8,30.03,ENE,68,3.0,4.0,22,0.00,,SKC,0.00,VWS V14.01,2013-05-15 06:05:00,
2013-05-14 23:10:00,80.0,36.6,30.03,ESE,112,5.0,5.0,21,0.00,,SKC,0.00,VWS V14.01,2013-05-15 06:10:00,
2013-05-14 23:15:00,80.0,36.6,30.03,ENE,68,3.0,4.0,21,0.00,,SKC,0.00,VWS V14.01,2013-05-15 06:15:00,
2013-05-14 23:21:00,80.0,36.6,30.03,NE,45,0.0,1.0,21,0.00,,SKC,0.00,VWS V14.01,2013-05-15 06:21:00,
2013-05-14 23:27:00,80.0,36.6,30.03,ESE,112,0.0,0.0,21,0.00,,SKC,0.00,VWS V14.01,2013-05-15 06:27:00,
2013-05-14 23:32:00,80.0,36.6,30.03,ESE,112,0.0,0.0,21,0.00,,SKC,0.00,VWS V14.01,2013-05-15 06:32:00,
2013-05-14 23:37:00,80.0,36.6,30.03,ESE,112,0.0,0.0,21,0.00,,SKC,0.00,VWS V14.01,2013-05-15 06:37:00,
2013-05-14 23:42:00,79.0,35.8,30.03,WNW,292,0.0,0.0,21,0.00,,SKC,0.00,VWS V14.01,2013-05-15 06:42:00,
2013-05-14 23:47:00,79.0,37.0,30.03,WNW,292,4.0,5.0,22,0.00,,SKC,0.00,VWS V14.01,2013-05-15 06:47:00,
2013-05-14 23:52:00,78.0,36.1,30.03,NW,315,3.0,3.0,22,0.00,,SKC,0.00,VWS V14.01,2013-05-15 06:52:00,
2013-05-14 23:58:00,78.0,36.1,30.03,NW,315,0.0,0.0,22,0.00,,SKC,0.00,VWS V14.01,2013-05-15 06:58:00,